Alma Center, Wisconsin
Current Conditions -  °F | °C
As of 7:55 PM on Wednesday 26 Nov 2014 (Local Time) from KBCK Reporting Station
Light Snow Light Snow  
Wind Chill: 24°   Ceiling: 5000
Heat Index: 24°   Visibility: 4mi
Dew Point: 23°   Wind: 0mph
Humidity: 96%   Direction: NA
Pressure: 30.23"   Gusts: NA
Location:  44.44°N, 90.91°W
Report Text: KBCK 270155Z AUTO 00000KT 4SM -SN SCT025 SCT030 OVC050 M04/M05 A3023 RMK AO2 T10451050
Loading
Personal Weather Stations






























Interactive Weather Map New forecast layout! Learn more

10-Day Weather Forecast

Advertisements
Track Severe Weather on mobile